createdAt,value
2022-11-17T00:00:47.083Z,83.16
2022-11-17T00:02:20.184Z,82.67
2022-11-17T00:03:52.701Z,82.97
2022-11-17T00:05:24.340Z,81.98
2022-11-17T00:06:56.195Z,82.27
2022-11-17T00:08:27.908Z,82.15
2022-11-17T00:09:59.598Z,82.36
2022-11-17T00:11:51.195Z,83.46
2022-11-17T00:13:41.293Z,82.93
2022-11-17T00:15:12.914Z,82.03
2022-11-17T00:16:49.359Z,82.67
2022-11-17T00:18:41.246Z,81.85
2022-11-17T00:20:31.550Z,81.94
2022-11-17T00:22:04.023Z,82.49
2022-11-17T00:23:50.495Z,82.41
2022-11-17T00:25:23.148Z,82.13
2022-11-17T00:27:03.703Z,82.58
2022-11-17T00:28:35.319Z,82.87
2022-11-17T00:30:08.145Z,83.03
2022-11-17T00:31:58.293Z,82.71
2022-11-17T00:33:50.058Z,83.69
2022-11-17T00:35:22.140Z,82.76
2022-11-17T00:36:57.318Z,83.60
2022-11-17T00:38:28.949Z,83.80
2022-11-17T00:40:01.405Z,83.58
2022-11-17T00:41:33.333Z,83.18
2022-11-17T00:43:04.970Z,83.59
2022-11-17T00:44:36.671Z,83.24
2022-11-17T00:46:09.572Z,83.60
2022-11-17T00:47:42.609Z,83.61
2022-11-17T00:49:15.950Z,84.10
2022-11-17T00:50:47.616Z,84.21
2022-11-17T00:52:19.260Z,83.35
2022-11-17T00:53:51.900Z,83.60
2022-11-17T00:55:23.717Z,84.62
2022-11-17T00:56:55.465Z,84.04
2022-11-17T00:58:27.141Z,84.47
2022-11-17T00:59:58.759Z,85.04
2022-11-17T01:01:31.043Z,85.14
2022-11-17T01:03:02.680Z,85.16
2022-11-17T01:04:35.687Z,84.99
2022-11-17T01:06:10.105Z,85.05
2022-11-17T01:07:41.735Z,84.68
2022-11-17T01:09:15.422Z,85.01
2022-11-17T01:10:47.102Z,85.09
2022-11-17T01:12:18.735Z,84.84
2022-11-17T01:13:54.532Z,85.62
2022-11-17T01:15:26.192Z,85.02
2022-11-17T01:16:58.295Z,85.78
2022-11-17T01:18:30.070Z,85.63
2022-11-17T01:20:03.607Z,85.92
2022-11-17T01:21:35.250Z,85.89
2022-11-17T01:23:06.896Z,85.70
2022-11-17T01:24:38.499Z,86.21
2022-11-17T01:26:12.807Z,86.54
2022-11-17T01:27:44.469Z,86.25
2022-11-17T01:29:19.621Z,86.57
2022-11-17T01:30:51.271Z,87.33
2022-11-17T01:32:22.875Z,86.85
2022-11-17T01:33:55.153Z,86.41
2022-11-17T01:35:28.377Z,87.05
2022-11-17T01:37:18.814Z,86.39
2022-11-17T01:38:51.413Z,86.95
2022-11-17T01:40:23.307Z,86.63
2022-11-17T01:41:56.475Z,86.69
2022-11-17T01:43:42.695Z,86.22
2022-11-17T01:45:19.087Z,85.51
2022-11-17T01:46:53.685Z,86.19
2022-11-17T01:48:27.471Z,85.76
2022-11-17T01:50:03.356Z,84.97
2022-11-17T01:51:40.485Z,85.59
2022-11-17T01:53:17.477Z,85.23
2022-11-17T01:54:49.509Z,85.06
2022-11-17T01:56:27.885Z,84.67
2022-11-17T01:58:05.181Z,84.91
2022-11-17T01:59:41.201Z,84.72
2022-11-17T02:01:12.906Z,85.51
2022-11-17T02:02:47.318Z,84.71
2022-11-17T02:04:18.943Z,84.77
2022-11-17T02:05:57.469Z,84.45
2022-11-17T02:07:34.283Z,84.21
2022-11-17T02:09:06.038Z,83.93
2022-11-17T02:10:38.865Z,84.78
2022-11-17T02:12:13.811Z,84.41
2022-11-17T02:13:45.972Z,84.09
2022-11-17T02:15:17.695Z,83.67
2022-11-17T02:16:49.407Z,83.76
2022-11-17T02:18:21.354Z,84.10
2022-11-17T02:20:00.749Z,83.92
2022-11-17T02:21:57.420Z,83.95
2022-11-17T02:23:56.116Z,83.98
2022-11-17T02:25:49.687Z,84.09
2022-11-17T02:27:50.795Z,84.27
2022-11-17T02:29:29.500Z,83.98
2022-11-17T02:31:12.761Z,83.77
2022-11-17T02:32:56.509Z,83.61
2022-11-17T02:34:37.500Z,83.58
2022-11-17T02:36:17.062Z,83.65
2022-11-17T02:37:55.278Z,84.34
2022-11-17T02:39:33.576Z,84.00
2022-11-17T02:41:11.489Z,84.78
2022-11-17T02:43:07.142Z,84.76
2022-11-17T02:44:45.265Z,84.81
2022-11-17T02:46:19.889Z,84.74
2022-11-17T02:47:54.527Z,85.47
2022-11-17T02:49:29.134Z,84.76
2022-11-17T02:51:02.689Z,85.29
2022-11-17T02:52:34.432Z,85.41
2022-11-17T02:54:07.440Z,86.24
2022-11-17T02:55:39.067Z,86.08
2022-11-17T02:57:29.097Z,86.87
2022-11-17T02:59:02.970Z,87.36
2022-11-17T03:00:42.681Z,86.75
2022-11-17T03:02:33.709Z,86.74
2022-11-17T03:04:29.417Z,86.60
2022-11-17T03:06:12.043Z,85.99
2022-11-17T03:07:55.968Z,85.81
2022-11-17T03:09:38.485Z,86.88
2022-11-17T03:11:11.565Z,87.04
2022-11-17T03:12:50.030Z,86.67
2022-11-17T03:14:30.002Z,87.02
2022-11-17T03:16:12.724Z,87.43
2022-11-17T03:17:49.924Z,86.90
2022-11-17T03:19:27.119Z,86.34
2022-11-17T03:21:10.364Z,86.65
2022-11-17T03:22:48.781Z,86.24
2022-11-17T03:24:23.728Z,86.76
2022-11-17T03:25:58.293Z,86.38
2022-11-17T03:27:35.359Z,86.10
2022-11-17T03:29:10.440Z,85.88
2022-11-17T03:30:45.913Z,85.56
2022-11-17T03:32:19.000Z,86.14
2022-11-17T03:33:51.633Z,85.95
2022-11-17T03:35:27.989Z,85.38
2022-11-17T03:37:03.495Z,85.25
2022-11-17T03:38:40.352Z,85.73
2022-11-17T03:40:17.438Z,85.56
2022-11-17T03:41:54.050Z,84.81
2022-11-17T03:43:27.310Z,85.16
2022-11-17T03:45:04.609Z,84.62
2022-11-17T03:46:40.902Z,84.72
2022-11-17T03:48:16.523Z,85.02
2022-11-17T03:49:56.125Z,84.86
2022-11-17T03:51:30.724Z,84.90
2022-11-17T03:53:04.046Z,84.72
2022-11-17T03:54:36.755Z,84.85
2022-11-17T03:56:16.788Z,85.37
2022-11-17T03:57:52.240Z,85.08
2022-11-17T03:59:29.426Z,85.40
2022-11-17T04:01:05.488Z,84.86
2022-11-17T04:02:41.524Z,84.42
2022-11-17T04:04:15.355Z,84.20
2022-11-17T04:05:47.084Z,84.61
2022-11-17T04:07:18.762Z,84.30
2022-11-17T04:08:50.536Z,84.39
2022-11-17T04:10:25.000Z,84.39
2022-11-17T04:12:15.367Z,84.36
2022-11-17T04:14:05.760Z,84.79
2022-11-17T04:15:56.229Z,84.33
2022-11-17T04:17:27.793Z,84.29
2022-11-17T04:19:00.741Z,84.06
2022-11-17T04:20:36.032Z,84.30
2022-11-17T04:22:08.403Z,84.31
2022-11-17T04:23:39.997Z,84.34
2022-11-17T04:25:31.639Z,84.19
2022-11-17T04:27:22.308Z,83.70
2022-11-17T04:28:53.902Z,83.71
2022-11-17T04:30:25.475Z,83.68
2022-11-17T04:31:57.161Z,83.84
2022-11-17T04:33:28.756Z,83.55
2022-11-17T04:35:01.702Z,84.30
2022-11-17T04:36:36.352Z,84.16
2022-11-17T04:38:07.993Z,83.76
2022-11-17T04:39:39.882Z,84.18
2022-11-17T04:41:32.013Z,83.90
2022-11-17T04:43:06.989Z,84.37
2022-11-17T04:44:38.648Z,84.31
2022-11-17T04:46:10.223Z,84.64
2022-11-17T04:47:41.824Z,84.42
2022-11-17T04:49:14.555Z,84.14
2022-11-17T04:50:47.500Z,84.26
2022-11-17T04:52:19.151Z,83.86
2022-11-17T04:53:51.256Z,83.98
2022-11-17T04:55:22.845Z,83.83
2022-11-17T04:56:55.617Z,83.58
2022-11-17T04:58:27.848Z,83.58
2022-11-17T04:59:59.424Z,83.82
2022-11-17T05:01:31.715Z,83.44
2022-11-17T05:03:03.311Z,83.61
2022-11-17T05:04:53.702Z,83.22
2022-11-17T05:06:28.591Z,83.50
2022-11-17T05:08:00.224Z,84.40
2022-11-17T05:09:31.907Z,84.18
2022-11-17T05:11:22.649Z,84.78
2022-11-17T05:13:23.592Z,84.74
2022-11-17T05:14:55.210Z,85.36
2022-11-17T05:16:45.774Z,85.86
2022-11-17T05:18:17.431Z,86.06
2022-11-17T05:19:49.111Z,85.77
2022-11-17T05:21:20.752Z,85.66
2022-11-17T05:23:12.236Z,85.95
2022-11-17T05:24:43.908Z,86.19
2022-11-17T05:26:15.844Z,86.41
2022-11-17T05:27:47.516Z,86.35
2022-11-17T05:29:21.054Z,86.88
2022-11-17T05:30:53.173Z,86.69
2022-11-17T05:32:25.082Z,86.53
2022-11-17T05:33:57.303Z,86.17
2022-11-17T05:35:28.897Z,86.36
2022-11-17T05:37:00.518Z,86.72
2022-11-17T05:38:33.576Z,86.62
2022-11-17T05:40:06.516Z,86.54
2022-11-17T05:41:38.200Z,86.60
2022-11-17T05:43:09.943Z,86.69
2022-11-17T05:44:41.635Z,86.39
2022-11-17T05:46:13.756Z,86.87
2022-11-17T05:47:45.505Z,86.42
2022-11-17T05:49:17.498Z,86.24
2022-11-17T05:50:51.998Z,87.00
2022-11-17T05:52:23.640Z,87.14
2022-11-17T05:53:56.628Z,87.14
2022-11-17T05:55:28.386Z,87.66
2022-11-17T05:57:03.268Z,87.31
2022-11-17T05:58:38.910Z,87.97
2022-11-17T06:00:11.540Z,87.88
2022-11-17T06:01:51.599Z,87.57
2022-11-17T06:03:28.697Z,87.64
2022-11-17T06:05:00.288Z,88.26
2022-11-17T06:06:34.856Z,87.88
2022-11-17T06:08:07.010Z,88.25
2022-11-17T06:09:42.142Z,88.45
2022-11-17T06:11:14.223Z,88.36
2022-11-17T06:12:45.932Z,87.79
2022-11-17T06:14:17.557Z,88.07
2022-11-17T06:15:49.160Z,87.36
2022-11-17T06:17:25.198Z,87.91
2022-11-17T06:19:02.582Z,88.03
2022-11-17T06:20:38.098Z,87.35
2022-11-17T06:22:13.069Z,87.35
2022-11-17T06:23:47.406Z,86.98
2022-11-17T06:25:20.854Z,87.32
2022-11-17T06:26:52.695Z,86.61
2022-11-17T06:28:28.115Z,86.44
2022-11-17T06:30:01.374Z,86.54
2022-11-17T06:31:33.137Z,86.57
2022-11-17T06:33:05.892Z,86.96
2022-11-17T06:34:37.696Z,86.91
2022-11-17T06:36:09.891Z,86.03
2022-11-17T06:37:41.500Z,86.32
2022-11-17T06:39:13.142Z,86.14
2022-11-17T06:40:46.192Z,85.50
2022-11-17T06:42:18.464Z,85.67
2022-11-17T06:43:50.131Z,85.91
2022-11-17T06:45:22.432Z,85.38
2022-11-17T06:46:54.031Z,85.39
2022-11-17T06:48:27.123Z,85.25
2022-11-17T06:49:58.722Z,84.04
2022-11-17T06:51:30.311Z,84.72
2022-11-17T06:53:03.696Z,84.45
2022-11-17T06:54:35.360Z,84.10
2022-11-17T06:56:10.814Z,84.13
2022-11-17T06:57:42.565Z,83.63
2022-11-17T06:59:15.941Z,83.47
2022-11-17T07:00:47.612Z,83.45
2022-11-17T07:02:20.109Z,83.61
2022-11-17T07:03:51.967Z,83.58
2022-11-17T07:05:23.697Z,83.24
2022-11-17T07:06:55.423Z,83.76
2022-11-17T07:08:27.836Z,83.99
2022-11-17T07:09:59.561Z,84.03
2022-11-17T07:11:35.243Z,83.00
2022-11-17T07:13:06.993Z,83.56
2022-11-17T07:14:38.652Z,83.50
2022-11-17T07:16:12.609Z,84.18
2022-11-17T07:17:44.311Z,84.02
2022-11-17T07:19:15.975Z,83.97
2022-11-17T07:20:48.025Z,84.04
2022-11-17T07:22:19.747Z,83.92
2022-11-17T07:23:51.549Z,85.10
2022-11-17T07:25:23.203Z,84.95
2022-11-17T07:26:56.188Z,84.83
2022-11-17T07:28:28.402Z,85.20
2022-11-17T07:30:00.156Z,85.32
2022-11-17T07:31:31.945Z,85.02
2022-11-17T07:33:03.813Z,84.77
2022-11-17T07:34:35.471Z,83.61
2022-11-17T07:36:09.802Z,84.32
2022-11-17T07:37:41.554Z,83.42
2022-11-17T07:39:19.976Z,83.95
2022-11-17T07:40:57.297Z,84.15
2022-11-17T07:42:30.859Z,83.33
2022-11-17T07:44:02.753Z,85.84
2022-11-17T07:45:35.528Z,85.63
2022-11-17T07:47:07.194Z,85.34
2022-11-17T07:48:40.673Z,85.79
2022-11-17T07:50:12.310Z,85.63
2022-11-17T07:51:43.971Z,86.36
2022-11-17T07:53:15.798Z,85.49
2022-11-17T07:54:47.514Z,84.50
2022-11-17T07:56:19.214Z,84.22
2022-11-17T07:57:56.699Z,84.38
2022-11-17T07:59:28.436Z,83.42
2022-11-17T08:01:04.868Z,82.67
2022-11-17T08:02:36.578Z,82.35
2022-11-17T08:04:08.528Z,82.16
2022-11-17T08:05:43.687Z,81.98
2022-11-17T08:07:15.754Z,81.77
2022-11-17T08:08:49.638Z,81.42
2022-11-17T08:10:21.453Z,81.72
2022-11-17T08:11:53.145Z,82.02
2022-11-17T08:13:26.253Z,82.45
2022-11-17T08:14:57.909Z,81.41
2022-11-17T08:16:30.801Z,81.11
2022-11-17T08:18:02.975Z,81.15
2022-11-17T08:19:34.633Z,80.45
2022-11-17T08:21:08.313Z,80.22
2022-11-17T08:22:39.968Z,80.27
2022-11-17T08:24:12.502Z,79.89
2022-11-17T08:25:44.791Z,79.81
2022-11-17T08:27:16.597Z,79.57
2022-11-17T08:28:53.662Z,79.67
2022-11-17T08:30:30.521Z,80.05
2022-11-17T08:32:02.175Z,80.10
2022-11-17T08:33:34.687Z,79.51
2022-11-17T08:35:07.339Z,79.95
2022-11-17T08:36:40.068Z,80.14
2022-11-17T08:38:12.280Z,79.74
2022-11-17T08:39:44.013Z,79.16
2022-11-17T08:41:15.802Z,79.47
2022-11-17T08:42:57.505Z,78.91
2022-11-17T08:44:33.669Z,78.79
2022-11-17T08:46:05.700Z,78.55
2022-11-17T08:47:37.879Z,78.92
2022-11-17T08:49:09.617Z,79.11
2022-11-17T08:50:41.290Z,78.58
2022-11-17T08:52:12.925Z,78.34
2022-11-17T08:53:44.572Z,77.97
2022-11-17T08:55:16.396Z,77.43
2022-11-17T08:56:48.223Z,77.26
2022-11-17T08:58:19.877Z,77.15
2022-11-17T08:59:52.876Z,76.98
2022-11-17T09:01:24.579Z,77.13
2022-11-17T09:02:56.273Z,76.71
2022-11-17T09:04:27.923Z,76.81
2022-11-17T09:06:00.057Z,76.15
2022-11-17T09:07:34.942Z,75.99
2022-11-17T09:09:06.797Z,76.25
2022-11-17T09:10:38.539Z,76.18
2022-11-17T09:12:10.209Z,75.67
2022-11-17T09:13:42.208Z,75.10
2022-11-17T09:15:15.450Z,75.31
2022-11-17T09:16:47.083Z,74.97
2022-11-17T09:18:18.708Z,74.29
2022-11-17T09:19:50.330Z,74.46
2022-11-17T09:21:21.992Z,74.31
2022-11-17T09:22:53.603Z,73.07
2022-11-17T09:24:26.631Z,73.24
2022-11-17T09:25:58.918Z,74.11
2022-11-17T09:27:30.556Z,74.75
2022-11-17T09:29:03.162Z,73.82
2022-11-17T09:30:36.556Z,73.30
2022-11-17T09:32:08.237Z,73.35
2022-11-17T09:33:39.979Z,73.02
2022-11-17T09:35:11.595Z,72.87
2022-11-17T09:36:43.232Z,72.18
2022-11-17T09:38:14.833Z,71.10
2022-11-17T09:39:46.570Z,71.49
2022-11-17T09:41:23.557Z,71.37
2022-11-17T09:42:58.600Z,70.63
2022-11-17T09:44:40.343Z,69.58
2022-11-17T09:46:18.018Z,69.96
2022-11-17T09:48:12.418Z,70.04
2022-11-17T09:49:58.699Z,70.01
2022-11-17T09:51:34.533Z,69.27
2022-11-17T09:53:16.171Z,68.95
2022-11-17T09:54:54.649Z,68.25
2022-11-17T09:56:27.371Z,67.31
2022-11-17T09:58:08.299Z,67.69
2022-11-17T09:59:42.517Z,68.34
2022-11-17T10:01:18.598Z,67.49
2022-11-17T10:02:51.471Z,67.37
2022-11-17T10:04:30.091Z,67.26
2022-11-17T10:06:05.625Z,67.00
2022-11-17T10:07:43.843Z,66.08
2022-11-17T10:09:25.745Z,65.71
2022-11-17T10:10:57.904Z,65.69
2022-11-17T10:12:36.552Z,66.17
2022-11-17T10:14:14.361Z,66.14
2022-11-17T10:15:48.942Z,65.94
2022-11-17T10:17:22.153Z,65.70
2022-11-17T10:18:53.801Z,65.35
2022-11-17T10:20:25.667Z,65.53
2022-11-17T10:22:16.244Z,65.11
2022-11-17T10:23:56.547Z,64.95
2022-11-17T10:25:37.709Z,64.53
2022-11-17T10:27:24.226Z,64.03
2022-11-17T10:29:21.522Z,64.61
2022-11-17T10:30:56.551Z,64.47
2022-11-17T10:32:32.447Z,64.62
2022-11-17T10:34:04.051Z,64.47
2022-11-17T10:35:36.230Z,64.59
2022-11-17T10:37:24.669Z,63.85
2022-11-17T10:38:58.543Z,64.54
2022-11-17T10:40:31.664Z,64.46
2022-11-17T10:42:18.387Z,63.96
2022-11-17T10:43:58.504Z,64.12
2022-11-17T10:45:30.485Z,64.19
2022-11-17T10:47:04.647Z,63.85
2022-11-17T10:48:39.222Z,63.93
2022-11-17T10:50:28.881Z,64.33
2022-11-17T10:52:16.143Z,63.93
2022-11-17T10:54:02.232Z,64.58
2022-11-17T10:55:34.365Z,64.27
2022-11-17T10:57:08.835Z,64.51
2022-11-17T10:58:59.938Z,63.68
2022-11-17T11:00:33.778Z,64.29
2022-11-17T11:02:28.188Z,63.55
2022-11-17T11:04:02.057Z,63.36
2022-11-17T11:05:33.723Z,63.42
2022-11-17T11:07:11.439Z,63.36
2022-11-17T11:08:50.143Z,63.45
2022-11-17T11:10:26.894Z,63.58
2022-11-17T11:12:02.018Z,63.52
2022-11-17T11:13:40.482Z,63.43
2022-11-17T11:15:18.911Z,63.56
2022-11-17T11:16:51.031Z,63.96
2022-11-17T11:18:22.905Z,64.09
2022-11-17T11:19:57.848Z,63.85
2022-11-17T11:21:42.532Z,62.91
2022-11-17T11:23:21.831Z,63.30
2022-11-17T11:25:02.556Z,63.43
2022-11-17T11:26:48.616Z,62.62
2022-11-17T11:28:35.448Z,62.83
2022-11-17T11:30:11.510Z,62.43
2022-11-17T11:31:55.097Z,62.99
2022-11-17T11:33:35.076Z,62.33
2022-11-17T11:35:31.967Z,62.49
2022-11-17T11:37:09.036Z,61.91
2022-11-17T11:38:55.355Z,62.35
2022-11-17T11:40:31.588Z,62.54
2022-11-17T11:42:32.077Z,62.00
2022-11-17T11:44:23.097Z,62.22
2022-11-17T11:46:07.532Z,62.26
2022-11-17T11:47:57.224Z,62.32
2022-11-17T11:49:36.217Z,62.07
2022-11-17T11:51:14.476Z,61.91
2022-11-17T11:52:51.780Z,61.94
2022-11-17T11:54:32.902Z,62.08
2022-11-17T11:56:29.774Z,60.80
2022-11-17T11:58:10.490Z,61.37
2022-11-17T11:59:50.572Z,61.63
2022-11-17T12:01:23.613Z,61.63
2022-11-17T12:03:02.867Z,60.82
2022-11-17T12:04:43.314Z,61.27
2022-11-17T12:06:42.582Z,61.94
2022-11-17T12:08:21.316Z,61.96
2022-11-17T12:10:00.827Z,61.90
2022-11-17T12:11:52.062Z,60.94
2022-11-17T12:13:24.765Z,61.58
2022-11-17T12:15:12.704Z,60.91
2022-11-17T12:16:46.436Z,60.60
2022-11-17T12:18:31.082Z,61.12
2022-11-17T12:20:10.444Z,60.67
2022-11-17T12:21:44.760Z,60.95
2022-11-17T12:23:24.003Z,61.46
2022-11-17T12:24:57.712Z,61.34
2022-11-17T12:26:31.070Z,60.94
2022-11-17T12:28:31.343Z,60.41
2022-11-17T12:30:05.394Z,59.98
2022-11-17T12:31:44.958Z,60.78
2022-11-17T12:33:16.815Z,60.22
2022-11-17T12:35:27.706Z,59.58
2022-11-17T12:37:22.038Z,59.76
2022-11-17T12:38:54.879Z,59.38
2022-11-17T12:40:44.278Z,59.40
2022-11-17T12:42:15.980Z,59.77
2022-11-17T12:43:47.616Z,59.64
2022-11-17T12:45:19.268Z,58.88
2022-11-17T12:47:00.740Z,59.76
2022-11-17T12:48:35.890Z,59.68
2022-11-17T12:50:31.649Z,58.86
2022-11-17T12:52:15.644Z,58.30
2022-11-17T12:54:00.491Z,58.31
2022-11-17T12:55:47.688Z,58.42
2022-11-17T12:57:27.136Z,58.69
2022-11-17T12:59:09.109Z,58.28
2022-11-17T13:00:53.169Z,58.40
2022-11-17T13:02:54.681Z,57.99
2022-11-17T13:04:34.807Z,58.04
2022-11-17T13:06:33.912Z,58.07
2022-11-17T13:08:18.669Z,57.86
2022-11-17T13:09:53.539Z,57.84
2022-11-17T13:11:25.716Z,58.01
2022-11-17T13:13:10.650Z,58.10
2022-11-17T13:14:53.823Z,58.36
2022-11-17T13:16:26.115Z,58.22
2022-11-17T13:17:59.063Z,58.41
2022-11-17T13:19:36.558Z,58.13
2022-11-17T13:21:26.552Z,58.03
2022-11-17T13:22:58.594Z,58.37
2022-11-17T13:24:34.395Z,58.42
2022-11-17T13:26:11.030Z,58.34
2022-11-17T13:27:49.391Z,58.42
2022-11-17T13:29:25.962Z,58.56
2022-11-17T13:30:58.284Z,58.70
2022-11-17T13:32:30.592Z,59.06
2022-11-17T13:34:06.115Z,58.72
2022-11-17T13:35:37.855Z,59.00
2022-11-17T13:37:15.634Z,58.94
2022-11-17T13:38:49.036Z,58.51
2022-11-17T13:40:23.088Z,58.71
2022-11-17T13:41:56.333Z,58.64
2022-11-17T13:43:32.145Z,58.36
2022-11-17T13:45:05.906Z,58.41
2022-11-17T13:46:38.766Z,58.77
2022-11-17T13:48:34.320Z,58.75
2022-11-17T13:50:34.224Z,58.47
2022-11-17T13:52:23.479Z,58.96
2022-11-17T13:54:00.274Z,58.96
2022-11-17T13:55:34.129Z,58.95
2022-11-17T13:57:07.902Z,59.35
2022-11-17T13:58:42.761Z,58.84
2022-11-17T14:00:17.251Z,59.40
2022-11-17T14:01:49.028Z,59.49
2022-11-17T14:03:32.920Z,59.42
2022-11-17T14:05:20.077Z,59.40
2022-11-17T14:06:56.919Z,59.56
2022-11-17T14:08:31.989Z,59.47
2022-11-17T14:10:13.396Z,59.53
2022-11-17T14:11:46.529Z,59.53
2022-11-17T14:13:29.887Z,59.97
2022-11-17T14:15:01.664Z,59.66
2022-11-17T14:16:37.458Z,59.52
2022-11-17T14:18:25.200Z,59.64
2022-11-17T14:20:17.527Z,59.70
2022-11-17T14:21:59.773Z,59.74
2022-11-17T14:23:31.411Z,59.93
2022-11-17T14:25:05.593Z,60.02
2022-11-17T14:26:42.254Z,59.51
2022-11-17T14:28:17.397Z,59.36
2022-11-17T14:29:49.046Z,59.58
2022-11-17T14:31:20.914Z,59.41
2022-11-17T14:32:52.734Z,59.56
2022-11-17T14:34:24.562Z,59.53
2022-11-17T14:35:59.039Z,59.45
2022-11-17T14:37:32.172Z,59.74
2022-11-17T14:39:04.515Z,59.96
2022-11-17T14:40:36.145Z,59.44
2022-11-17T14:42:11.076Z,59.44
2022-11-17T14:43:44.581Z,59.16
2022-11-17T14:45:17.075Z,59.40
2022-11-17T14:46:48.772Z,59.44
2022-11-17T14:48:20.750Z,59.30
2022-11-17T14:49:52.402Z,59.35
2022-11-17T14:51:24.137Z,59.47
2022-11-17T14:52:55.800Z,59.21
2022-11-17T14:54:27.455Z,59.39
2022-11-17T14:56:06.587Z,59.30
2022-11-17T14:57:38.607Z,59.51
2022-11-17T14:59:11.729Z,59.48
2022-11-17T15:00:43.447Z,59.78
2022-11-17T15:02:15.108Z,59.60
2022-11-17T15:03:47.034Z,59.73
2022-11-17T15:05:18.841Z,59.62
2022-11-17T15:06:50.645Z,60.14
2022-11-17T15:08:22.413Z,59.69
2022-11-17T15:09:54.053Z,59.91
2022-11-17T15:11:26.736Z,59.94
2022-11-17T15:12:58.355Z,59.83
2022-11-17T15:14:31.412Z,59.72
2022-11-17T15:16:03.343Z,60.01
2022-11-17T15:17:35.013Z,59.91
2022-11-17T15:19:07.048Z,59.97
2022-11-17T15:20:38.738Z,60.06
2022-11-17T15:22:10.382Z,59.95
2022-11-17T15:23:42.603Z,60.10
2022-11-17T15:25:14.407Z,60.08
2022-11-17T15:26:46.066Z,60.29
2022-11-17T15:28:22.431Z,60.11
2022-11-17T15:29:56.102Z,60.00
2022-11-17T15:31:27.954Z,60.21
2022-11-17T15:33:01.091Z,60.28
2022-11-17T15:34:32.742Z,60.30
2022-11-17T15:36:05.543Z,60.34
2022-11-17T15:37:37.225Z,60.18
2022-11-17T15:39:08.884Z,60.44
2022-11-17T15:40:40.609Z,60.45
2022-11-17T15:42:12.214Z,60.28
2022-11-17T15:43:45.145Z,60.45
2022-11-17T15:45:18.179Z,60.30
2022-11-17T15:46:49.882Z,60.54
2022-11-17T15:48:21.567Z,60.51
2022-11-17T15:49:58.316Z,60.45
2022-11-17T15:51:29.946Z,60.56
2022-11-17T15:53:04.365Z,60.31
2022-11-17T15:54:36.458Z,60.63
2022-11-17T15:56:09.762Z,60.54
2022-11-17T15:57:42.467Z,60.57
2022-11-17T15:59:14.605Z,60.53
2022-11-17T16:00:47.872Z,60.15
2022-11-17T16:02:19.545Z,60.33
2022-11-17T16:03:52.232Z,60.24
2022-11-17T16:05:23.898Z,59.94
2022-11-17T16:06:55.605Z,60.00
2022-11-17T16:08:27.474Z,60.30
2022-11-17T16:09:59.148Z,60.22
2022-11-17T16:11:30.879Z,59.83
2022-11-17T16:13:02.630Z,60.12
2022-11-17T16:14:34.271Z,60.05
2022-11-17T16:16:12.225Z,60.24
2022-11-17T16:17:44.056Z,59.97
2022-11-17T16:19:15.963Z,60.32
2022-11-17T16:20:48.124Z,60.29
2022-11-17T16:22:19.810Z,60.38
2022-11-17T16:23:55.767Z,60.25
2022-11-17T16:25:27.525Z,60.25
2022-11-17T16:26:59.279Z,60.64
2022-11-17T16:28:30.931Z,60.57
2022-11-17T16:30:02.723Z,60.77
2022-11-17T16:31:37.263Z,60.91
2022-11-17T16:33:10.251Z,61.07
2022-11-17T16:34:43.474Z,61.28
2022-11-17T16:36:15.429Z,61.23
2022-11-17T16:37:50.961Z,61.21
2022-11-17T16:39:22.648Z,61.47
2022-11-17T16:40:54.275Z,61.48
2022-11-17T16:42:25.994Z,61.60
2022-11-17T16:43:57.800Z,61.81
2022-11-17T16:45:29.532Z,62.10
2022-11-17T16:47:02.663Z,62.07
2022-11-17T16:48:34.289Z,62.21
2022-11-17T16:50:06.860Z,62.48
2022-11-17T16:51:38.867Z,62.00
2022-11-17T16:53:10.572Z,62.37
2022-11-17T16:54:42.207Z,62.46
2022-11-17T16:56:13.964Z,62.49
2022-11-17T16:57:45.773Z,62.69
2022-11-17T16:59:17.807Z,62.96
2022-11-17T17:00:49.738Z,62.99
2022-11-17T17:02:22.793Z,63.41
2022-11-17T17:03:55.884Z,63.49
2022-11-17T17:05:30.495Z,63.54
2022-11-17T17:07:02.329Z,63.43
2022-11-17T17:08:34.957Z,63.82
2022-11-17T17:10:07.573Z,63.88
2022-11-17T17:11:39.601Z,63.99
2022-11-17T17:13:12.484Z,63.54
2022-11-17T17:14:44.157Z,64.08
2022-11-17T17:16:17.725Z,64.34
2022-11-17T17:17:50.813Z,64.65
2022-11-17T17:19:22.601Z,64.86
2022-11-17T17:20:54.280Z,64.80
2022-11-17T17:22:26.031Z,64.55
2022-11-17T17:23:58.046Z,64.48
2022-11-17T17:25:29.733Z,64.56
2022-11-17T17:27:01.389Z,65.31
2022-11-17T17:28:34.305Z,65.01
2022-11-17T17:30:06.941Z,65.32
2022-11-17T17:31:40.372Z,65.25
2022-11-17T17:33:13.371Z,65.18
2022-11-17T17:34:45.065Z,65.23
2022-11-17T17:36:18.529Z,65.55
2022-11-17T17:37:50.163Z,65.76
2022-11-17T17:39:21.820Z,66.19
2022-11-17T17:40:53.470Z,66.11
2022-11-17T17:42:25.118Z,65.95
2022-11-17T17:43:58.495Z,66.03
2022-11-17T17:45:30.147Z,65.96
2022-11-17T17:47:01.802Z,66.24
2022-11-17T17:48:36.965Z,66.64
2022-11-17T17:50:09.199Z,66.18
2022-11-17T17:51:44.022Z,66.84
2022-11-17T17:53:15.656Z,66.21
2022-11-17T17:54:47.266Z,66.76
2022-11-17T17:56:21.139Z,66.87
2022-11-17T17:57:52.935Z,66.84
2022-11-17T17:59:24.646Z,67.06
2022-11-17T18:01:06.242Z,66.69
2022-11-17T18:02:37.924Z,67.19
2022-11-17T18:04:15.525Z,66.90
2022-11-17T18:05:48.392Z,67.59
2022-11-17T18:07:20.052Z,67.80
2022-11-17T18:08:51.775Z,67.23
2022-11-17T18:10:23.401Z,67.48
2022-11-17T18:11:55.109Z,67.57
2022-11-17T18:13:29.992Z,67.75
2022-11-17T18:15:02.802Z,68.12
2022-11-17T18:16:34.477Z,67.83
2022-11-17T18:18:06.350Z,68.32
2022-11-17T18:19:39.444Z,67.67
2022-11-17T18:21:13.059Z,67.99
2022-11-17T18:22:44.709Z,68.51
2022-11-17T18:24:16.431Z,68.27
2022-11-17T18:25:48.105Z,68.04
2022-11-17T18:27:19.735Z,68.41
2022-11-17T18:28:53.154Z,68.65
2022-11-17T18:30:24.859Z,68.50
2022-11-17T18:31:56.541Z,68.73
2022-11-17T18:33:29.691Z,68.25
2022-11-17T18:35:02.640Z,68.46
2022-11-17T18:36:35.569Z,68.59
2022-11-17T18:38:07.327Z,68.99
2022-11-17T18:39:38.956Z,69.51
2022-11-17T18:41:12.508Z,69.26
2022-11-17T18:42:44.168Z,69.46
2022-11-17T18:44:18.409Z,69.61
2022-11-17T18:45:50.036Z,69.65
2022-11-17T18:47:21.698Z,69.50
2022-11-17T18:48:53.983Z,69.64
2022-11-17T18:50:27.005Z,69.93
2022-11-17T18:51:58.638Z,69.65
2022-11-17T18:53:31.463Z,69.83
2022-11-17T18:55:03.714Z,70.45
2022-11-17T18:56:37.112Z,70.50
2022-11-17T18:58:08.804Z,69.91
2022-11-17T18:59:40.484Z,70.33
2022-11-17T19:01:14.622Z,70.44
2022-11-17T19:02:46.399Z,70.71
2022-11-17T19:04:18.300Z,71.10
2022-11-17T19:05:51.368Z,71.08
2022-11-17T19:07:23.111Z,70.82
2022-11-17T19:08:55.005Z,70.20
2022-11-17T19:10:26.652Z,70.05
2022-11-17T19:11:58.330Z,70.92
2022-11-17T19:13:30.928Z,70.95
2022-11-17T19:15:02.640Z,70.90
2022-11-17T19:16:41.041Z,71.25
2022-11-17T19:18:15.736Z,70.26
2022-11-17T19:19:47.399Z,71.19
2022-11-17T19:21:21.945Z,70.75
2022-11-17T19:22:55.020Z,70.54
2022-11-17T19:24:26.726Z,70.95
2022-11-17T19:25:58.402Z,71.32
2022-11-17T19:27:30.098Z,71.18
2022-11-17T19:29:03.880Z,70.96
2022-11-17T19:30:35.627Z,70.32
2022-11-17T19:32:07.219Z,70.40
2022-11-17T19:33:40.465Z,70.03
2022-11-17T19:35:17.157Z,70.53
2022-11-17T19:36:54.416Z,70.47
2022-11-17T19:38:26.119Z,70.70
2022-11-17T19:39:57.882Z,70.91
2022-11-17T19:41:31.418Z,70.60
2022-11-17T19:43:03.045Z,71.20
2022-11-17T19:44:34.690Z,70.64
2022-11-17T19:46:08.490Z,70.89
2022-11-17T19:47:40.115Z,70.51
2022-11-17T19:49:12.486Z,71.38
2022-11-17T19:50:44.166Z,70.63
2022-11-17T19:52:17.114Z,71.11
2022-11-17T19:53:50.140Z,70.44
2022-11-17T19:55:22.164Z,71.02
2022-11-17T19:56:54.277Z,71.50
2022-11-17T19:58:25.926Z,71.23
2022-11-17T19:59:57.546Z,70.79
2022-11-17T20:01:30.151Z,70.74
2022-11-17T20:03:01.916Z,71.10
2022-11-17T20:04:33.549Z,70.71
2022-11-17T20:06:06.072Z,70.73
2022-11-17T20:07:39.187Z,70.95
2022-11-17T20:09:12.471Z,70.60
2022-11-17T20:10:44.366Z,70.60
2022-11-17T20:12:16.097Z,70.60
2022-11-17T20:13:48.253Z,70.96
2022-11-17T20:15:33.919Z,71.00
2022-11-17T20:17:06.541Z,70.88
2022-11-17T20:18:38.263Z,70.98
2022-11-17T20:20:11.044Z,70.39
2022-11-17T20:21:42.746Z,70.59
2022-11-17T20:23:15.775Z,71.09
2022-11-17T20:24:47.429Z,70.54
2022-11-17T20:26:21.247Z,70.51
2022-11-17T20:27:52.890Z,70.81